createdAt,value
2023-03-03T00:01:15.454Z,-2.45
2023-03-03T00:03:42.153Z,-2.23
2023-03-03T00:06:11.010Z,-2.07
2023-03-03T00:08:37.760Z,-2.02
2023-03-03T00:11:06.303Z,-2.29
2023-03-03T00:13:33.398Z,-2.44
2023-03-03T00:16:14.151Z,-2.33
2023-03-03T00:18:44.410Z,-2.19
2023-03-03T00:21:26.550Z,-2.01
2023-03-03T00:23:53.346Z,-2.00
2023-03-03T00:26:29.384Z,-2.03
2023-03-03T00:28:57.096Z,-2.09
2023-03-03T00:31:34.566Z,-2.11
2023-03-03T00:34:25.982Z,-2.12
2023-03-03T00:36:57.200Z,-2.47
2023-03-03T00:39:38.193Z,-2.79
2023-03-03T00:42:15.104Z,-2.88
2023-03-03T00:44:44.322Z,-2.89
2023-03-03T00:47:18.080Z,-2.96
2023-03-03T00:49:44.711Z,-2.89
2023-03-03T00:52:17.428Z,-2.96
2023-03-03T00:54:44.013Z,-2.79
2023-03-03T00:57:14.490Z,-2.54
2023-03-03T00:59:42.482Z,-2.62
2023-03-03T01:02:09.111Z,-2.71
2023-03-03T01:04:36.354Z,-2.52
2023-03-03T01:07:03.281Z,-2.65
2023-03-03T01:09:29.897Z,-2.76
2023-03-03T01:11:56.442Z,-2.72
2023-03-03T01:14:23.204Z,-2.78
2023-03-03T01:16:51.142Z,-2.90
2023-03-03T01:19:17.979Z,-2.80
2023-03-03T01:21:44.452Z,-2.57
2023-03-03T01:24:11.094Z,-2.45
2023-03-03T01:26:37.610Z,-2.61
2023-03-03T01:29:05.033Z,-2.82
2023-03-03T01:31:31.596Z,-3.22
2023-03-03T01:33:58.309Z,-3.14
2023-03-03T01:36:26.221Z,-3.08
2023-03-03T01:38:53.935Z,-2.86
2023-03-03T01:41:21.111Z,-2.88
2023-03-03T01:43:50.143Z,-3.22
2023-03-03T01:46:38.559Z,-3.07
2023-03-03T01:49:12.851Z,-3.11
2023-03-03T01:51:47.146Z,-3.35
2023-03-03T01:54:29.972Z,-3.07
2023-03-03T01:57:01.110Z,-2.97
2023-03-03T01:59:34.419Z,-3.10
2023-03-03T02:02:01.267Z,-3.28
2023-03-03T02:04:28.755Z,-3.28
2023-03-03T02:07:00.549Z,-2.97
2023-03-03T02:09:27.196Z,-2.97
2023-03-03T02:11:59.490Z,-2.94
2023-03-03T02:14:26.286Z,-2.85
2023-03-03T02:16:52.845Z,-3.01
2023-03-03T02:19:45.996Z,-3.37
2023-03-03T02:22:16.827Z,-3.24
2023-03-03T02:24:51.469Z,-3.49
2023-03-03T02:27:19.697Z,-3.56
2023-03-03T02:29:46.454Z,-3.60
2023-03-03T02:32:13.065Z,-3.45
2023-03-03T02:34:48.745Z,-3.56
2023-03-03T02:37:15.323Z,-3.62
2023-03-03T02:39:43.285Z,-3.52
2023-03-03T02:42:21.913Z,-3.52
2023-03-03T02:44:52.916Z,-3.52
2023-03-03T02:47:19.470Z,-3.32
2023-03-03T02:49:46.256Z,-3.32
2023-03-03T02:52:14.853Z,-3.64
2023-03-03T02:54:44.938Z,-3.72
2023-03-03T02:57:11.482Z,-3.81
2023-03-03T02:59:38.126Z,-3.94
2023-03-03T03:02:09.806Z,-3.91
2023-03-03T03:04:36.371Z,-3.84
2023-03-03T03:07:03.971Z,-3.82
2023-03-03T03:09:32.591Z,-3.63
2023-03-03T03:12:02.383Z,-3.47
2023-03-03T03:14:30.953Z,-3.57
2023-03-03T03:16:58.807Z,-3.78
2023-03-03T03:19:26.954Z,-3.81
2023-03-03T03:21:53.551Z,-3.56
2023-03-03T03:24:20.639Z,-3.46
2023-03-03T03:26:53.649Z,-3.69
2023-03-03T03:29:21.397Z,-3.94
2023-03-03T03:31:47.975Z,-3.99
2023-03-03T03:34:14.468Z,-3.99
2023-03-03T03:36:41.010Z,-4.07
2023-03-03T03:39:08.063Z,-3.70
2023-03-03T03:41:37.599Z,-3.54
2023-03-03T03:44:04.498Z,-3.61
2023-03-03T03:46:31.081Z,-3.78
2023-03-03T03:48:57.702Z,-3.72
2023-03-03T03:51:25.043Z,-3.80
2023-03-03T03:53:51.572Z,-3.99
2023-03-03T03:56:18.135Z,-4.10
2023-03-03T03:58:47.892Z,-4.01
2023-03-03T04:01:15.347Z,-3.70
2023-03-03T04:03:46.498Z,-3.89
2023-03-03T04:06:16.975Z,-4.07
2023-03-03T04:08:44.208Z,-3.81
2023-03-03T04:11:11.211Z,-3.93
2023-03-03T04:13:38.055Z,-4.13
2023-03-03T04:16:07.035Z,-3.93
2023-03-03T04:18:35.684Z,-3.96
2023-03-03T04:21:03.151Z,-4.19
2023-03-03T04:23:29.732Z,-4.26
2023-03-03T04:25:56.234Z,-4.23
2023-03-03T04:28:25.148Z,-4.16
2023-03-03T04:30:52.074Z,-3.99
2023-03-03T04:33:20.475Z,-3.85
2023-03-03T04:35:48.347Z,-3.79
2023-03-03T04:38:15.364Z,-3.84
2023-03-03T04:40:42.832Z,-4.17
2023-03-03T04:43:13.179Z,-4.21
2023-03-03T04:45:39.798Z,-4.24
2023-03-03T04:48:07.364Z,-4.34
2023-03-03T04:50:34.947Z,-4.33
2023-03-03T04:53:02.129Z,-4.28
2023-03-03T04:55:28.679Z,-4.37
2023-03-03T04:57:55.144Z,-4.38
2023-03-03T05:00:22.255Z,-4.37
2023-03-03T05:02:49.105Z,-4.42
2023-03-03T05:05:16.370Z,-4.33
2023-03-03T05:07:42.862Z,-4.15
2023-03-03T05:10:10.010Z,-4.33
2023-03-03T05:12:36.630Z,-4.52
2023-03-03T05:15:03.216Z,-4.37
2023-03-03T05:17:29.822Z,-4.11
2023-03-03T05:19:57.281Z,-4.13
2023-03-03T05:22:24.768Z,-4.43
2023-03-03T05:24:51.613Z,-4.31
2023-03-03T05:27:18.131Z,-4.36
2023-03-03T05:29:44.930Z,-4.48
2023-03-03T05:32:11.486Z,-4.63
2023-03-03T05:34:38.204Z,-4.64
2023-03-03T05:37:06.665Z,-4.68
2023-03-03T05:39:34.052Z,-4.72
2023-03-03T05:42:00.747Z,-4.45
2023-03-03T05:44:27.439Z,-4.58
2023-03-03T05:46:53.989Z,-4.52
2023-03-03T05:49:20.525Z,-4.54
2023-03-03T05:51:46.979Z,-4.30
2023-03-03T05:54:13.532Z,-4.12
2023-03-03T05:56:40.008Z,-4.18
2023-03-03T05:59:06.488Z,-4.06
2023-03-03T06:01:33.235Z,-4.01
2023-03-03T06:03:59.756Z,-4.33
2023-03-03T06:06:26.660Z,-4.35
2023-03-03T06:08:55.520Z,-4.45
2023-03-03T06:11:23.705Z,-4.32
2023-03-03T06:13:50.208Z,-4.26
2023-03-03T06:16:16.702Z,-4.52
2023-03-03T06:18:43.162Z,-4.57
2023-03-03T06:21:09.627Z,-4.62
2023-03-03T06:23:36.117Z,-4.63
2023-03-03T06:26:02.641Z,-4.67
2023-03-03T06:28:29.165Z,-4.52
2023-03-03T06:30:56.759Z,-4.46
2023-03-03T06:33:23.742Z,-4.19
2023-03-03T06:35:54.815Z,-4.25
2023-03-03T06:38:21.424Z,-4.31
2023-03-03T06:40:48.115Z,-4.26
2023-03-03T06:43:14.644Z,-3.75
2023-03-03T06:45:41.321Z,-3.81
2023-03-03T06:48:07.843Z,-3.88
2023-03-03T06:50:34.929Z,-4.06
2023-03-03T06:53:21.846Z,-4.06
2023-03-03T06:55:48.578Z,-3.93
2023-03-03T06:58:20.633Z,-3.50
2023-03-03T07:00:50.125Z,-3.19
2023-03-03T07:03:19.982Z,-2.91
2023-03-03T07:05:46.561Z,-2.83
2023-03-03T07:08:20.993Z,-2.71
2023-03-03T07:10:49.299Z,-2.49
2023-03-03T07:13:27.254Z,-2.52
2023-03-03T07:15:55.925Z,-2.29
2023-03-03T07:18:40.803Z,-1.70
2023-03-03T07:21:16.339Z,-1.09
2023-03-03T07:23:44.547Z,-0.50
2023-03-03T07:26:17.469Z,-0.19
2023-03-03T07:28:52.153Z,1.15
2023-03-03T07:31:44.615Z,2.32
2023-03-03T07:34:24.294Z,2.70
2023-03-03T07:36:54.811Z,2.82
2023-03-03T07:39:25.495Z,3.14
2023-03-03T07:41:52.151Z,3.25
2023-03-03T07:44:26.161Z,4.01
2023-03-03T07:46:52.743Z,2.63
2023-03-03T07:49:37.140Z,3.38
2023-03-03T07:52:32.190Z,3.03
2023-03-03T07:55:19.772Z,3.66
2023-03-03T07:57:46.961Z,4.00
2023-03-03T08:00:16.658Z,3.45
2023-03-03T08:02:58.097Z,3.14
2023-03-03T08:05:28.687Z,3.22
2023-03-03T08:08:03.629Z,3.61
2023-03-03T08:10:48.335Z,4.10
2023-03-03T08:13:34.166Z,4.40
2023-03-03T08:16:09.810Z,4.95
2023-03-03T08:18:40.171Z,5.00
2023-03-03T08:21:19.734Z,4.65
2023-03-03T08:23:46.551Z,4.13
2023-03-03T08:26:13.998Z,4.98
2023-03-03T08:28:40.865Z,5.19
2023-03-03T08:31:18.374Z,5.63
2023-03-03T08:33:49.065Z,6.72
2023-03-03T08:36:15.558Z,6.15
2023-03-03T08:38:42.168Z,6.26
2023-03-03T08:41:08.777Z,6.10
2023-03-03T08:43:35.261Z,6.15
2023-03-03T08:46:05.205Z,6.67
2023-03-03T08:48:32.870Z,7.30
2023-03-03T08:51:00.217Z,7.32
2023-03-03T08:53:28.042Z,7.08
2023-03-03T08:55:55.227Z,8.75
2023-03-03T08:58:33.478Z,8.03
2023-03-03T09:01:01.162Z,7.39
2023-03-03T09:03:27.672Z,8.10
2023-03-03T09:05:54.165Z,9.47
2023-03-03T09:08:20.732Z,8.48
2023-03-03T09:10:47.191Z,8.93
2023-03-03T09:13:16.701Z,9.67
2023-03-03T09:15:44.838Z,10.03
2023-03-03T09:18:18.558Z,9.36
2023-03-03T09:20:48.206Z,8.91
2023-03-03T09:23:35.793Z,8.42
2023-03-03T09:26:29.724Z,9.00
2023-03-03T09:29:14.027Z,8.13
2023-03-03T09:31:51.757Z,6.60
2023-03-03T09:34:23.556Z,6.97
2023-03-03T09:36:52.307Z,7.41
2023-03-03T09:39:21.703Z,8.79
2023-03-03T09:42:26.045Z,8.51
2023-03-03T09:45:00.214Z,8.70
2023-03-03T09:47:47.606Z,7.93
2023-03-03T09:50:52.303Z,7.20
2023-03-03T09:53:24.538Z,7.25
2023-03-03T09:55:57.117Z,8.26
2023-03-03T09:58:30.663Z,8.98
2023-03-03T10:01:06.219Z,8.57
2023-03-03T10:03:32.663Z,8.33
2023-03-03T10:06:11.223Z,9.96
2023-03-03T10:09:00.737Z,10.48
2023-03-03T10:11:39.937Z,9.43
2023-03-03T10:14:15.473Z,10.85
2023-03-03T10:17:01.555Z,9.37
2023-03-03T10:19:40.606Z,10.27
2023-03-03T10:22:17.246Z,10.55
2023-03-03T10:25:05.075Z,11.03
2023-03-03T10:28:10.618Z,12.33
2023-03-03T10:31:06.815Z,11.87
2023-03-03T10:34:03.246Z,12.69
2023-03-03T10:37:00.724Z,11.70
2023-03-03T10:39:45.379Z,11.82
2023-03-03T10:42:28.083Z,12.92
2023-03-03T10:45:26.974Z,12.56
2023-03-03T10:47:56.312Z,11.37
2023-03-03T10:50:25.645Z,10.01
2023-03-03T10:53:27.461Z,9.81
2023-03-03T10:55:57.762Z,9.58
2023-03-03T10:58:56.688Z,10.15
2023-03-03T11:01:39.041Z,11.73
2023-03-03T11:04:14.474Z,11.86
2023-03-03T11:06:53.797Z,11.00
2023-03-03T11:09:57.427Z,11.50
2023-03-03T11:12:35.062Z,11.37
2023-03-03T11:15:25.089Z,11.99
2023-03-03T11:18:00.399Z,11.43
2023-03-03T11:20:36.051Z,12.56
2023-03-03T11:23:24.372Z,11.82
2023-03-03T11:26:08.008Z,11.86
2023-03-03T11:28:47.600Z,10.83
2023-03-03T11:31:48.178Z,11.49
2023-03-03T11:34:36.234Z,11.13
2023-03-03T11:37:15.502Z,12.01
2023-03-03T11:39:44.066Z,11.21
2023-03-03T11:42:42.865Z,11.27
2023-03-03T11:45:15.678Z,11.37
2023-03-03T11:47:59.381Z,12.05
2023-03-03T11:50:38.293Z,13.27
2023-03-03T11:53:31.794Z,12.30
2023-03-03T11:56:22.039Z,12.18
2023-03-03T11:59:04.653Z,13.05
2023-03-03T12:01:39.493Z,12.14
2023-03-03T12:04:18.856Z,12.26
2023-03-03T12:07:19.972Z,13.63
2023-03-03T12:10:07.277Z,13.79
2023-03-03T12:12:42.641Z,13.44
2023-03-03T12:15:31.266Z,14.58
2023-03-03T12:18:20.065Z,14.08
2023-03-03T12:20:56.723Z,13.16
2023-03-03T12:23:49.242Z,12.46
2023-03-03T12:26:39.680Z,13.26
2023-03-03T12:29:36.853Z,14.23
2023-03-03T12:32:32.912Z,14.32
2023-03-03T12:35:28.780Z,14.37
2023-03-03T12:38:08.159Z,15.01
2023-03-03T12:40:38.912Z,12.53
2023-03-03T12:43:30.133Z,14.16
2023-03-03T12:46:28.185Z,13.83
2023-03-03T12:48:55.349Z,14.77
2023-03-03T12:51:48.409Z,14.36
2023-03-03T12:55:04.721Z,14.57
2023-03-03T12:57:59.364Z,13.48
2023-03-03T13:00:38.188Z,13.70
2023-03-03T13:03:17.906Z,13.28
2023-03-03T13:06:21.182Z,12.48
2023-03-03T13:08:54.092Z,13.34
2023-03-03T13:11:54.064Z,14.49
2023-03-03T13:14:26.628Z,13.86
2023-03-03T13:17:31.246Z,13.64
2023-03-03T13:20:05.795Z,12.03
2023-03-03T13:22:32.352Z,10.16
2023-03-03T13:25:07.594Z,9.96
2023-03-03T13:27:44.078Z,10.06
2023-03-03T13:30:20.504Z,10.16
2023-03-03T13:33:05.140Z,9.92
2023-03-03T13:35:44.504Z,9.55
2023-03-03T13:38:20.893Z,9.15
2023-03-03T13:41:12.527Z,9.36
2023-03-03T13:44:01.908Z,9.27
2023-03-03T13:46:35.690Z,9.08
2023-03-03T13:49:20.810Z,9.22
2023-03-03T13:52:05.457Z,9.07
2023-03-03T13:54:50.381Z,9.09
2023-03-03T13:57:29.659Z,8.85
2023-03-03T14:00:18.332Z,8.27
2023-03-03T14:03:17.820Z,8.84
2023-03-03T14:05:48.662Z,8.71
2023-03-03T14:08:21.194Z,8.55
2023-03-03T14:11:11.100Z,8.99
2023-03-03T14:13:50.866Z,8.87
2023-03-03T14:16:30.195Z,8.65
2023-03-03T14:19:05.718Z,8.69
2023-03-03T14:21:38.258Z,8.68
2023-03-03T14:24:15.033Z,8.21
2023-03-03T14:26:56.800Z,8.41
2023-03-03T14:29:32.308Z,8.22
2023-03-03T14:32:01.769Z,8.21
2023-03-03T14:34:41.823Z,7.81
2023-03-03T14:37:44.707Z,8.21
2023-03-03T14:40:22.738Z,8.15
2023-03-03T14:42:52.085Z,7.70
2023-03-03T14:45:36.942Z,7.73
2023-03-03T14:48:23.583Z,8.14
2023-03-03T14:50:54.000Z,8.01
2023-03-03T14:53:34.182Z,8.19
2023-03-03T14:56:32.937Z,7.97
2023-03-03T14:59:20.100Z,8.03
2023-03-03T15:01:47.338Z,8.15
2023-03-03T15:04:13.899Z,7.83
2023-03-03T15:06:49.385Z,8.07
2023-03-03T15:09:30.523Z,8.02
2023-03-03T15:11:59.069Z,8.07
2023-03-03T15:14:30.468Z,7.78
2023-03-03T15:17:12.138Z,7.65
2023-03-03T15:19:46.389Z,7.78
2023-03-03T15:22:18.601Z,8.02
2023-03-03T15:25:14.584Z,7.73
2023-03-03T15:28:22.717Z,7.65
2023-03-03T15:30:52.419Z,7.52
2023-03-03T15:33:30.505Z,7.64
2023-03-03T15:36:28.898Z,7.52
2023-03-03T15:39:01.249Z,7.26
2023-03-03T15:41:43.676Z,7.37
2023-03-03T15:44:33.086Z,7.35
2023-03-03T15:47:24.391Z,7.34
2023-03-03T15:50:24.176Z,7.16
2023-03-03T15:53:01.176Z,7.01
2023-03-03T15:55:46.548Z,6.99
2023-03-03T15:58:49.255Z,6.90
2023-03-03T16:01:21.310Z,6.79
2023-03-03T16:03:54.640Z,6.62
2023-03-03T16:06:37.322Z,6.55
2023-03-03T16:09:28.800Z,6.41
2023-03-03T16:12:10.702Z,6.39
2023-03-03T16:14:56.320Z,6.50
2023-03-03T16:17:28.748Z,6.44
2023-03-03T16:20:28.673Z,6.52
2023-03-03T16:23:17.240Z,6.35
2023-03-03T16:26:01.945Z,6.20
2023-03-03T16:28:31.390Z,6.06
2023-03-03T16:31:03.901Z,5.97
2023-03-03T16:33:43.882Z,5.83
2023-03-03T16:36:21.794Z,5.81
2023-03-03T16:39:01.740Z,5.60
2023-03-03T16:41:46.405Z,5.68
2023-03-03T16:44:21.239Z,5.78
2023-03-03T16:46:49.731Z,5.59
2023-03-03T16:49:31.792Z,5.41
2023-03-03T16:52:12.004Z,5.39
2023-03-03T16:54:56.186Z,5.40
2023-03-03T16:57:43.677Z,5.33
2023-03-03T17:00:29.997Z,5.21
2023-03-03T17:03:14.953Z,5.21
2023-03-03T17:05:57.855Z,5.15
2023-03-03T17:08:44.569Z,5.01
2023-03-03T17:11:20.111Z,4.77
2023-03-03T17:14:40.697Z,4.40
2023-03-03T17:17:31.363Z,4.36
2023-03-03T17:20:17.750Z,4.45
2023-03-03T17:23:02.964Z,4.04
2023-03-03T17:25:45.493Z,3.66
2023-03-03T17:28:59.120Z,3.53
2023-03-03T17:31:48.625Z,3.59
2023-03-03T17:34:50.384Z,3.35
2023-03-03T17:37:26.959Z,3.57
2023-03-03T17:40:17.691Z,3.50
2023-03-03T17:42:53.205Z,3.65
2023-03-03T17:45:22.108Z,3.46
2023-03-03T17:48:09.036Z,3.20
2023-03-03T17:51:11.397Z,2.96
2023-03-03T17:53:44.070Z,2.83
2023-03-03T17:56:22.843Z,2.66
2023-03-03T17:59:18.755Z,2.67
2023-03-03T18:02:16.075Z,2.73
2023-03-03T18:05:13.911Z,2.84
2023-03-03T18:08:00.513Z,2.89
2023-03-03T18:10:48.760Z,2.77
2023-03-03T18:13:44.484Z,2.65
2023-03-03T18:16:48.584Z,2.56
2023-03-03T18:19:29.063Z,2.68
2023-03-03T18:22:06.743Z,2.67
2023-03-03T18:24:33.116Z,2.68
2023-03-03T18:27:24.592Z,2.69
2023-03-03T18:30:15.800Z,2.39
2023-03-03T18:32:47.185Z,2.50
2023-03-03T18:35:28.008Z,2.56
2023-03-03T18:37:55.283Z,2.66
2023-03-03T18:40:28.361Z,2.61
2023-03-03T18:42:55.501Z,2.60
2023-03-03T18:45:23.012Z,2.55
2023-03-03T18:48:09.894Z,2.32
2023-03-03T18:50:41.935Z,2.17
2023-03-03T18:53:30.442Z,2.28
2023-03-03T18:56:02.000Z,2.26
2023-03-03T18:58:36.286Z,2.23
2023-03-03T19:01:12.105Z,2.22
2023-03-03T19:03:47.519Z,2.22
2023-03-03T19:06:56.568Z,2.07
2023-03-03T19:09:46.613Z,2.04
2023-03-03T19:12:16.787Z,2.11
2023-03-03T19:14:48.614Z,1.85
2023-03-03T19:17:18.216Z,1.76
2023-03-03T19:20:05.963Z,1.90
2023-03-03T19:22:44.816Z,1.93
2023-03-03T19:25:18.652Z,1.87
2023-03-03T19:27:58.417Z,1.87
2023-03-03T19:30:43.543Z,1.73
2023-03-03T19:33:40.688Z,1.75
2023-03-03T19:36:39.560Z,1.68
2023-03-03T19:39:36.389Z,1.68
2023-03-03T19:42:28.230Z,1.51
2023-03-03T19:44:57.712Z,1.59
2023-03-03T19:48:02.382Z,1.68
2023-03-03T19:50:59.847Z,1.67
2023-03-03T19:53:41.498Z,1.47
2023-03-03T19:56:20.493Z,1.46
2023-03-03T19:58:59.565Z,1.43
2023-03-03T20:01:47.535Z,1.34
2023-03-03T20:04:38.677Z,1.15
2023-03-03T20:07:24.893Z,1.15
2023-03-03T20:10:16.136Z,1.23
2023-03-03T20:12:53.140Z,1.13
2023-03-03T20:15:32.388Z,1.04
2023-03-03T20:18:01.589Z,1.08
2023-03-03T20:20:46.831Z,1.09
2023-03-03T20:23:32.189Z,0.90
2023-03-03T20:26:13.843Z,0.97
2023-03-03T20:29:14.435Z,0.95
2023-03-03T20:31:50.089Z,0.45
2023-03-03T20:34:43.951Z,0.33
2023-03-03T20:37:17.211Z,0.32
2023-03-03T20:40:02.014Z,0.24
2023-03-03T20:43:00.316Z,0.23
2023-03-03T20:45:29.755Z,0.29
2023-03-03T20:48:06.616Z,0.13
2023-03-03T20:50:49.950Z,0.03
2023-03-03T20:53:30.943Z,0.16
2023-03-03T20:56:09.468Z,-0.08
2023-03-03T20:59:13.643Z,-0.15
2023-03-03T21:01:58.414Z,-0.40
2023-03-03T21:04:30.890Z,-0.49
2023-03-03T21:06:58.409Z,-0.50
2023-03-03T21:09:35.168Z,-0.68
2023-03-03T21:12:23.125Z,-0.64
2023-03-03T21:15:04.001Z,-0.68
2023-03-03T21:17:31.750Z,-0.62
2023-03-03T21:20:20.493Z,-0.60
2023-03-03T21:22:47.032Z,-0.67
2023-03-03T21:25:43.329Z,-0.61
2023-03-03T21:28:15.072Z,-0.73
2023-03-03T21:31:11.241Z,-0.86
2023-03-03T21:33:40.380Z,-0.93
2023-03-03T21:36:07.298Z,-0.98
2023-03-03T21:38:34.811Z,-1.08
2023-03-03T21:41:02.585Z,-0.96
2023-03-03T21:43:41.560Z,-1.03
2023-03-03T21:46:08.471Z,-0.89
2023-03-03T21:48:35.081Z,-0.92
2023-03-03T21:51:01.685Z,-1.36
2023-03-03T21:53:29.575Z,-1.41
2023-03-03T21:55:56.230Z,-1.41
2023-03-03T21:58:22.723Z,-1.28
2023-03-03T22:00:49.225Z,-1.73
2023-03-03T22:03:16.794Z,-1.92
2023-03-03T22:05:43.741Z,-1.93
2023-03-03T22:08:10.198Z,-2.07
2023-03-03T22:10:36.648Z,-2.12
2023-03-03T22:13:03.197Z,-2.25
2023-03-03T22:15:33.167Z,-2.27
2023-03-03T22:18:00.683Z,-2.27
2023-03-03T22:20:27.313Z,-2.32
2023-03-03T22:22:53.905Z,-2.24
2023-03-03T22:25:20.404Z,-2.23
2023-03-03T22:27:46.902Z,-2.20
2023-03-03T22:30:13.894Z,-2.39
2023-03-03T22:32:40.364Z,-2.36
2023-03-03T22:35:07.579Z,-2.38
2023-03-03T22:37:34.011Z,-2.36
2023-03-03T22:40:01.279Z,-2.49
2023-03-03T22:42:27.903Z,-2.47
2023-03-03T22:44:54.448Z,-2.47
2023-03-03T22:47:20.923Z,-2.52
2023-03-03T22:49:47.370Z,-2.58
2023-03-03T22:52:13.806Z,-2.40
2023-03-03T22:54:40.734Z,-2.61
2023-03-03T22:57:07.170Z,-2.66
2023-03-03T22:59:34.504Z,-2.60
2023-03-03T23:02:01.007Z,-2.47
2023-03-03T23:04:27.575Z,-2.30
2023-03-03T23:06:54.075Z,-2.38
2023-03-03T23:09:20.599Z,-2.28
2023-03-03T23:11:47.023Z,-2.45
2023-03-03T23:14:13.570Z,-2.53
2023-03-03T23:16:40.083Z,-2.54
2023-03-03T23:19:06.536Z,-2.46
2023-03-03T23:21:33.052Z,-2.57
2023-03-03T23:23:59.562Z,-2.81
2023-03-03T23:26:26.185Z,-2.92
2023-03-03T23:28:52.664Z,-2.87
2023-03-03T23:31:19.204Z,-2.69
2023-03-03T23:33:45.751Z,-2.67
2023-03-03T23:36:12.439Z,-2.65
2023-03-03T23:38:39.493Z,-3.03
2023-03-03T23:41:06.735Z,-3.19
2023-03-03T23:43:33.576Z,-3.27
2023-03-03T23:46:00.092Z,-3.29
2023-03-03T23:48:26.605Z,-3.34
2023-03-03T23:50:53.055Z,-3.47
2023-03-03T23:53:19.578Z,-3.44
2023-03-03T23:55:46.058Z,-3.39
2023-03-03T23:58:12.659Z,-3.49
